Time;durP1;ratioP1;P1;durP2;ratioP2;P2;SDS_P1;SDS_P2;PMS_P1;PMS_P2;Temp;Humidity;BMP_temperature;BMP_pressure;BME280_temperature;BME280_humidity;BME280_pressure;Samples;Min_cycle;Max_cycle;Signal;HPM_P1;HPM_P2
2023/10/18 00:01:00;;;;;;;10.63;8.87;;;5.10;99.90;;;;;;5094626;28;20170;-78
2023/10/18 00:03:31;;;;;;;12.20;9.10;;;5.20;99.90;;;;;;5093985;28;20182;-77
2023/10/18 00:06:11;;;;;;;10.77;8.73;;;5.20;99.90;;;;;;5094683;28;20163;-78
2023/10/18 00:08:38;;;;;;;15.63;9.60;;;5.10;99.90;;;;;;5094351;28;20265;-77
2023/10/18 00:11:04;;;;;;;9.57;8.57;;;5.00;99.90;;;;;;5094137;28;20198;-77
2023/10/18 00:13:31;;;;;;;10.73;9.23;;;5.10;99.90;;;;;;5094586;28;20220;-79
2023/10/18 00:16:01;;;;;;;11.30;8.50;;;5.20;99.90;;;;;;5094592;28;20217;-78
2023/10/18 00:18:27;;;;;;;10.97;8.77;;;5.20;99.90;;;;;;5094622;28;20171;-79
2023/10/18 00:21:00;;;;;;;10.17;8.23;;;5.10;99.90;;;;;;5094420;28;20226;-79
2023/10/18 00:23:27;;;;;;;10.27;8.80;;;5.00;99.90;;;;;;5093824;28;20209;-78
2023/10/18 00:25:54;;;;;;;10.87;8.60;;;4.90;99.90;;;;;;5094046;28;20174;-76
2023/10/18 00:28:20;;;;;;;10.30;9.07;;;4.90;99.90;;;;;;5094314;28;20644;-76
2023/10/18 00:30:46;;;;;;;10.57;9.03;;;4.90;99.90;;;;;;5094051;28;20189;-79
2023/10/18 00:33:12;;;;;;;11.63;8.70;;;4.80;99.90;;;;;;5093634;28;20203;-79
2023/10/18 00:35:42;;;;;;;10.43;8.53;;;4.70;99.90;;;;;;5094901;28;20289;-79
2023/10/18 00:38:14;;;;;;;11.63;8.77;;;4.70;99.90;;;;;;5099150;28;20185;-78
2023/10/18 00:40:40;;;;;;;10.87;9.10;;;4.70;99.90;;;;;;5094783;28;20169;-78
2023/10/18 00:43:19;;;;;;;11.03;8.67;;;4.60;99.90;;;;;;5094787;28;20182;-79
2023/10/18 00:45:52;;;;;;;11.13;9.23;;;4.60;99.90;;;;;;5094228;28;20204;-78
2023/10/18 00:48:20;;;;;;;13.73;9.37;;;4.60;99.90;;;;;;5094629;28;20170;-78
2023/10/18 00:50:48;;;;;;;14.43;9.27;;;4.60;99.90;;;;;;5103963;28;20168;-78
2023/10/18 00:53:22;;;;;;;10.87;8.43;;;4.60;99.90;;;;;;5094899;28;20201;-79
2023/10/18 00:55:57;;;;;;;11.77;8.60;;;4.60;99.90;;;;;;5093316;28;20163;-78
2023/10/18 00:58:27;;;;;;;11.60;8.50;;;4.50;99.90;;;;;;5093778;28;20170;-80
2023/10/18 01:00:54;;;;;;;11.03;9.17;;;4.50;99.90;;;;;;5093533;28;20173;-78
2023/10/18 01:03:30;;;;;;;11.73;9.03;;;4.50;99.90;;;;;;5093824;28;20219;-76
2023/10/18 01:05:58;;;;;;;13.03;9.17;;;4.50;99.90;;;;;;5094460;28;20162;-77
2023/10/18 01:08:24;;;;;;;9.70;8.40;;;4.60;99.90;;;;;;5097875;28;20171;-77
2023/10/18 01:10:51;;;;;;;9.97;8.67;;;4.60;99.90;;;;;;5098390;28;20186;-79
2023/10/18 01:13:20;;;;;;;12.53;8.77;;;4.60;99.90;;;;;;5110972;28;20194;-79
2023/10/18 01:15:46;;;;;;;10.37;7.70;;;4.70;99.90;;;;;;5106956;28;20177;-79
2023/10/18 01:18:12;;;;;;;10.00;8.60;;;4.70;99.90;;;;;;5082367;28;20273;-79
2023/10/18 01:20:40;;;;;;;10.63;8.50;;;4.70;99.90;;;;;;5098337;28;20260;-78
2023/10/18 01:23:07;;;;;;;11.13;8.93;;;4.60;99.90;;;;;;5113012;28;20207;-78
2023/10/18 01:25:34;;;;;;;9.17;7.97;;;4.70;99.90;;;;;;5079917;28;20232;-78
2023/10/18 01:28:00;;;;;;;10.37;8.17;;;4.70;99.90;;;;;;5097323;28;20174;-79
2023/10/18 01:30:29;;;;;;;9.03;8.13;;;4.70;99.90;;;;;;5096899;28;20165;-78
2023/10/18 01:32:55;;;;;;;9.93;7.83;;;4.70;99.90;;;;;;5097125;28;20185;-78
2023/10/18 01:35:25;;;;;;;12.73;8.27;;;4.60;99.90;;;;;;5079142;28;20181;-78
2023/10/18 01:38:32;;;;;;;9.83;7.70;;;4.60;99.90;;;;;;5112878;28;20210;-78
2023/10/18 01:41:27;;;;;;;8.03;7.23;;;4.60;99.90;;;;;;5095584;28;20186;-78
2023/10/18 01:46:35;;;;;;;10.83;7.93;;;4.50;99.90;;;;;;5097299;28;20203;-79
2023/10/18 01:49:01;;;;;;;8.80;7.43;;;4.50;99.90;;;;;;5097039;28;20176;-78
2023/10/18 01:51:28;;;;;;;10.60;8.37;;;4.40;99.90;;;;;;5096261;28;20672;-77
2023/10/18 01:54:02;;;;;;;10.33;8.13;;;4.20;99.90;;;;;;5096500;28;20522;-76
2023/10/18 01:56:28;;;;;;;10.77;8.33;;;4.30;99.90;;;;;;5097153;28;20198;-78
2023/10/18 01:58:54;;;;;;;9.40;7.53;;;4.30;99.90;;;;;;5096220;28;20169;-77
2023/10/18 02:01:21;;;;;;;13.47;7.50;;;4.30;99.90;;;;;;5096491;28;20197;-76
2023/10/18 02:03:50;;;;;;;8.90;7.50;;;4.30;99.90;;;;;;5097791;28;20604;-79
2023/10/18 02:06:16;;;;;;;8.70;7.73;;;4.30;99.90;;;;;;5096568;28;20178;-79
2023/10/18 02:08:42;;;;;;;10.73;7.73;;;4.30;99.90;;;;;;5100222;28;20201;-78
2023/10/18 02:11:09;;;;;;;9.10;7.80;;;4.20;99.90;;;;;;5105995;28;20186;-78
2023/10/18 02:13:38;;;;;;;8.40;7.33;;;4.30;99.90;;;;;;5097257;28;20174;-78
2023/10/18 02:16:06;;;;;;;9.63;7.90;;;4.20;99.90;;;;;;5096404;28;20199;-79
2023/10/18 02:18:33;;;;;;;7.93;6.90;;;4.20;99.90;;;;;;5095383;28;20183;-79
2023/10/18 02:21:00;;;;;;;9.27;7.27;;;4.20;99.90;;;;;;5077911;28;20856;-77
2023/10/18 02:23:34;;;;;;;8.37;7.10;;;4.20;99.90;;;;;;5096113;28;20557;-78
2023/10/18 02:26:30;;;;;;;8.90;7.57;;;4.20;99.90;;;;;;5096363;28;20225;-78
2023/10/18 02:28:52;;;;;;;9.83;7.57;;;4.20;99.90;;;;;;5094852;28;20685;-77
2023/10/18 02:31:21;;;;;;;8.20;7.23;;;4.10;99.90;;;;;;5078185;28;20179;-78
2023/10/18 02:33:53;;;;;;;9.07;7.33;;;4.20;99.90;;;;;;5096540;28;20585;-76
2023/10/18 02:36:22;;;;;;;8.87;7.37;;;4.20;99.90;;;;;;5097412;28;20206;-79
2023/10/18 02:38:55;;;;;;;9.70;7.53;;;4.20;99.90;;;;;;5096778;28;20266;-80
2023/10/18 02:41:21;;;;;;;8.17;7.37;;;4.10;99.90;;;;;;5096446;28;20614;-78
2023/10/18 02:43:51;;;;;;;9.40;7.37;;;4.10;99.90;;;;;;5103525;28;20194;-79
2023/10/18 02:46:23;;;;;;;10.13;8.00;;;4.00;99.90;;;;;;5099410;28;20262;-79
2023/10/18 02:48:53;;;;;;;10.07;7.73;;;4.00;99.90;;;;;;5095738;28;20215;-77
2023/10/18 02:51:22;;;;;;;8.37;7.47;;;4.00;99.90;;;;;;5097797;28;20199;-77
2023/10/18 02:53:51;;;;;;;9.80;7.33;;;4.80;99.90;;;;;;5095986;28;20262;-78
2023/10/18 02:56:17;;;;;;;9.03;6.87;;;4.00;99.90;;;;;;5099659;28;20339;-76
2023/10/18 02:58:48;;;;;;;8.63;7.73;;;4.00;99.90;;;;;;5097602;28;20186;-79
2023/10/18 03:01:18;;;;;;;9.53;7.73;;;4.10;99.90;;;;;;5079296;28;20243;-79
2023/10/18 03:03:49;;;;;;;12.80;7.23;;;4.10;99.90;;;;;;5096219;28;20186;-78
2023/10/18 03:06:14;;;;;;;7.53;6.73;;;4.10;99.90;;;;;;5099737;28;20170;-80
2023/10/18 03:08:44;;;;;;;7.90;7.07;;;4.10;99.90;;;;;;5105054;28;20196;-78
2023/10/18 03:11:13;;;;;;;8.67;6.80;;;4.00;99.90;;;;;;5101726;28;20226;-78
2023/10/18 03:13:39;;;;;;;8.00;6.77;;;4.00;99.90;;;;;;5095715;28;20169;-77
2023/10/18 03:16:06;;;;;;;7.90;6.70;;;4.00;99.90;;;;;;5095173;28;20282;-76
2023/10/18 03:18:37;;;;;;;11.00;6.63;;;4.00;99.90;;;;;;5096145;28;20170;-76
2023/10/18 03:21:08;;;;;;;7.77;6.70;;;3.90;99.90;;;;;;5094810;28;20214;-78
2023/10/18 03:23:44;;;;;;;9.87;7.37;;;4.00;99.90;;;;;;5094355;28;20157;-77
2023/10/18 03:26:11;;;;;;;11.00;7.13;;;4.10;99.90;;;;;;5101301;28;20183;-79
2023/10/18 03:28:40;;;;;;;9.40;7.37;;;4.00;99.90;;;;;;5094987;28;20178;-79
2023/10/18 03:31:44;;;;;;;8.40;7.30;;;4.00;99.90;;;;;;5105779;28;20182;-77
2023/10/18 03:34:02;;;;;;;8.60;7.07;;;3.90;99.90;;;;;;5094396;28;20282;-78
2023/10/18 03:36:33;;;;;;;8.73;7.37;;;3.90;99.90;;;;;;5094578;28;20225;-77
2023/10/18 03:39:13;;;;;;;10.90;7.17;;;4.00;99.90;;;;;;5094900;28;20165;-76
2023/10/18 03:41:42;;;;;;;7.47;6.77;;;4.00;99.90;;;;;;5094040;28;20162;-75
2023/10/18 03:44:09;;;;;;;8.67;7.30;;;4.10;99.90;;;;;;5094200;28;20184;-77
2023/10/18 03:46:38;;;;;;;8.37;7.23;;;4.00;99.90;;;;;;5094287;28;20182;-76
2023/10/18 03:49:08;;;;;;;9.93;7.53;;;4.00;99.90;;;;;;5104876;28;20166;-78
2023/10/18 03:51:36;;;;;;;9.53;7.20;;;4.00;99.90;;;;;;5097233;28;20178;-77
2023/10/18 03:54:02;;;;;;;7.67;6.67;;;4.00;99.90;;;;;;5094918;28;20177;-80
2023/10/18 03:56:32;;;;;;;11.20;7.73;;;4.00;99.90;;;;;;5094454;28;20217;-78
2023/10/18 03:59:00;;;;;;;8.13;7.20;;;3.90;99.90;;;;;;5094764;28;20171;-77
2023/10/18 04:01:41;;;;;;;8.43;7.33;;;3.90;99.90;;;;;;5093744;28;20170;-77
2023/10/18 04:04:07;;;;;;;10.73;7.10;;;3.80;99.90;;;;;;5094849;28;20167;-79
2023/10/18 04:06:35;;;;;;;9.60;6.73;;;3.70;99.90;;;;;;5094922;28;20181;-77
2023/10/18 04:09:13;;;;;;;8.23;6.70;;;3.80;99.90;;;;;;5094009;28;20178;-78
2023/10/18 04:11:40;;;;;;;8.17;7.20;;;3.80;99.90;;;;;;5094550;28;20524;-79
2023/10/18 04:14:06;;;;;;;10.73;7.70;;;3.80;99.90;;;;;;5094166;28;20174;-79
2023/10/18 04:16:32;;;;;;;9.53;6.63;;;3.80;99.90;;;;;;5094946;28;20261;-77
2023/10/18 04:18:58;;;;;;;11.53;7.33;;;3.90;99.90;;;;;;5094290;28;20573;-78
2023/10/18 04:21:28;;;;;;;9.93;6.53;;;3.90;99.90;;;;;;5093546;28;20288;-78
2023/10/18 04:23:57;;;;;;;7.70;6.87;;;3.90;99.90;;;;;;5109797;28;20759;-79
2023/10/18 04:26:25;;;;;;;11.10;6.70;;;3.80;99.90;;;;;;5097209;28;20675;-80
2023/10/18 04:29:20;;;;;;;9.70;6.90;;;3.80;99.90;;;;;;5103072;28;20159;-78
2023/10/18 04:32:23;;;;;;;9.13;7.20;;;3.80;99.90;;;;;;5097261;28;20217;-79
2023/10/18 04:35:17;;;;;;;10.63;7.20;;;3.70;99.90;;;;;;5109815;28;20178;-78
2023/10/18 04:39:08;;;;;;;10.83;7.83;;;3.80;99.90;;;;;;5092170;28;20213;-78
2023/10/18 04:42:16;;;;;;;8.60;7.20;;;3.80;99.90;;;;;;5058380;28;20285;-78
2023/10/18 04:45:59;;;;;;;10.43;7.47;;;3.90;99.90;;;;;;5105923;28;20238;-79
2023/10/18 04:49:00;;;;;;;12.23;7.83;;;3.80;99.90;;;;;;5032642;28;20191;-78
2023/10/18 04:52:40;;;;;;;11.00;7.73;;;3.80;99.90;;;;;;5027096;28;20279;-79
2023/10/18 04:55:25;;;;;;;10.33;7.83;;;3.90;99.90;;;;;;5038763;28;20672;-79
2023/10/18 04:57:53;;;;;;;9.67;7.90;;;3.80;99.90;;;;;;5038094;28;20226;-78
2023/10/18 05:00:25;;;;;;;11.27;8.30;;;3.90;99.90;;;;;;5054821;28;20863;-78
2023/10/18 05:02:58;;;;;;;8.90;7.57;;;3.90;99.90;;;;;;5056450;28;20237;-79
2023/10/18 05:05:27;;;;;;;10.07;8.13;;;3.70;99.90;;;;;;5071395;28;20165;-77
2023/10/18 05:07:54;;;;;;;15.40;8.40;;;3.70;99.90;;;;;;5056198;28;20191;-78
2023/10/18 05:10:21;;;;;;;14.13;9.03;;;3.80;99.90;;;;;;5055101;28;20604;-78
2023/10/18 05:12:53;;;;;;;13.00;9.20;;;3.70;99.90;;;;;;5037956;28;20210;-78
2023/10/18 05:15:29;;;;;;;11.23;8.37;;;3.60;99.90;;;;;;5055957;28;20211;-79
2023/10/18 05:18:04;;;;;;;12.97;9.87;;;3.60;99.90;;;;;;5067361;28;20201;-78
2023/10/18 05:23:35;;;;;;;13.50;9.47;;;3.50;99.90;;;;;;5100096;28;20186;-78
2023/10/18 05:26:08;;;;;;;13.10;10.10;;;3.50;99.90;;;;;;5097231;28;20225;-78
2023/10/18 05:28:52;;;;;;;14.97;10.17;;;3.50;99.90;;;;;;5098052;28;20165;-80
2023/10/18 05:34:48;;;;;;;18.37;10.33;;;3.50;99.90;;;;;;5104298;28;20163;-79
2023/10/18 05:41:59;;;;;;;12.23;9.37;;;3.50;99.90;;;;;;5099793;28;20166;-79
2023/10/18 05:44:28;;;;;;;12.17;9.73;;;3.50;99.90;;;;;;5105948;28;20188;-81
2023/10/18 05:46:54;;;;;;;16.10;9.87;;;3.50;99.90;;;;;;5098020;28;20566;-78
2023/10/18 05:49:28;;;;;;;16.07;10.67;;;3.50;99.90;;;;;;5098230;28;20178;-77
2023/10/18 05:52:16;;;;;;;12.27;9.27;;;3.50;99.90;;;;;;5097924;28;20166;-79
2023/10/18 05:54:44;;;;;;;17.77;10.37;;;3.50;99.90;;;;;;5097439;28;20162;-77
2023/10/18 05:57:15;;;;;;;17.70;11.50;;;3.50;99.90;;;;;;5097731;28;20189;-76
2023/10/18 05:59:42;;;;;;;16.67;11.30;;;3.60;99.90;;;;;;5096760;28;20523;-78
2023/10/18 06:02:10;;;;;;;18.30;10.50;;;3.90;99.90;;;;;;5097093;28;20687;-77
2023/10/18 06:04:45;;;;;;;15.67;10.17;;;4.00;99.90;;;;;;5099460;28;20174;-76
2023/10/18 06:07:12;;;;;;;14.03;10.23;;;4.20;99.90;;;;;;5097980;28;20192;-78
2023/10/18 06:09:54;;;;;;;13.03;9.80;;;4.30;99.90;;;;;;5099439;28;20549;-79
2023/10/18 06:12:31;;;;;;;11.47;9.50;;;4.20;99.90;;;;;;5098851;28;20639;-79
2023/10/18 06:14:57;;;;;;;20.30;10.07;;;4.00;99.90;;;;;;5097209;28;20178;-78
2023/10/18 06:17:26;;;;;;;13.00;9.40;;;3.90;99.90;;;;;;5096889;28;20236;-79
2023/10/18 06:19:52;;;;;;;13.60;9.20;;;3.80;99.90;;;;;;5096647;28;20239;-78
2023/10/18 06:22:38;;;;;;;12.00;9.60;;;3.80;99.90;;;;;;5100761;28;20178;-78
2023/10/18 06:25:09;;;;;;;10.63;9.13;;;3.90;99.90;;;;;;5107032;28;20161;-78
2023/10/18 06:27:41;;;;;;;14.60;10.07;;;3.90;99.90;;;;;;5096470;28;20194;-79
2023/10/18 06:30:17;;;;;;;14.07;10.30;;;3.90;99.90;;;;;;5079056;28;20175;-77
2023/10/18 06:32:45;;;;;;;16.63;9.03;;;3.90;99.90;;;;;;5108283;28;20170;-77
2023/10/18 06:35:26;;;;;;;12.80;9.03;;;3.90;99.90;;;;;;5113936;28;20184;-77
2023/10/18 06:37:52;;;;;;;14.43;9.23;;;3.90;99.90;;;;;;5084179;28;20257;-79
2023/10/18 06:40:43;;;;;;;13.50;9.87;;;3.90;99.90;;;;;;5098243;28;20515;-78
2023/10/18 06:43:08;;;;;;;17.33;10.97;;;4.00;99.90;;;;;;5096137;28;20188;-77
2023/10/18 06:45:37;;;;;;;12.43;9.90;;;4.10;99.90;;;;;;5095610;28;20167;-77
2023/10/18 06:48:04;;;;;;;13.03;9.27;;;4.00;99.90;;;;;;5095859;28;20696;-76
2023/10/18 06:50:30;;;;;;;11.23;9.67;;;4.00;99.90;;;;;;5095636;28;20207;-79
2023/10/18 06:52:58;;;;;;;11.73;9.17;;;3.90;99.90;;;;;;5095604;28;20180;-80
2023/10/18 06:55:41;;;;;;;11.10;9.27;;;4.00;99.90;;;;;;5077628;28;20185;-78
2023/10/18 07:01:00;;;;;;;12.60;8.83;;;4.10;99.90;;;;;;5103357;28;20172;-79
2023/10/18 07:03:31;;;;;;;12.60;8.60;;;4.10;99.90;;;;;;5105629;28;20168;-79
2023/10/18 07:05:57;;;;;;;11.87;8.50;;;4.00;99.90;;;;;;5097188;28;20165;-79
2023/10/18 07:08:32;;;;;;;12.73;9.10;;;4.10;99.90;;;;;;5095867;28;20535;-79
2023/10/18 07:11:01;;;;;;;19.37;8.87;;;4.20;99.90;;;;;;5095593;28;20490;-77
2023/10/18 07:13:34;;;;;;;12.23;8.10;;;4.20;99.90;;;;;;5094822;28;20288;-79
2023/10/18 07:16:15;;;;;;;10.77;8.60;;;4.30;99.90;;;;;;5096932;28;20159;-78
2023/10/18 07:18:44;;;;;;;15.67;9.00;;;4.30;99.90;;;;;;5101711;28;20163;-76
2023/10/18 07:21:13;;;;;;;12.60;8.60;;;4.30;99.90;;;;;;5094639;28;20263;-76
2023/10/18 07:23:40;;;;;;;10.57;8.20;;;4.30;99.90;;;;;;5094783;28;20174;-79
2023/10/18 07:26:13;;;;;;;10.13;8.30;;;4.40;99.90;;;;;;5076221;28;20234;-81
2023/10/18 07:28:40;;;;;;;10.23;8.70;;;4.50;99.90;;;;;;5097785;28;20226;-78
2023/10/18 07:31:10;;;;;;;14.17;8.73;;;4.60;99.90;;;;;;5102607;28;20182;-78
2023/10/18 07:33:43;;;;;;;8.73;7.80;;;4.70;99.90;;;;;;5095386;28;20169;-80
2023/10/18 07:36:11;;;;;;;9.57;7.93;;;4.80;99.90;;;;;;5094461;28;20165;-78
2023/10/18 07:38:38;;;;;;;12.50;9.50;;;4.80;99.90;;;;;;5094410;28;20171;-77
2023/10/18 07:41:07;;;;;;;12.60;8.27;;;4.90;99.90;;;;;;5077180;28;20758;-78
2023/10/18 07:43:37;;;;;;;10.37;8.53;;;5.00;99.90;;;;;;5104431;28;20176;-78
2023/10/18 07:56:56;;;;;;;8.73;7.67;;;5.40;99.90;;;;;;5052002;28;20240;-79
2023/10/18 08:00:32;;;;;;;14.43;8.93;;;5.60;99.90;;;;;;4915717;29;20180;-78
2023/10/18 08:07:15;;;;;;;12.07;9.17;;;5.80;99.90;;;;;;4872994;29;20228;-77
2023/10/18 08:10:29;;;;;;;12.80;8.73;;;5.80;99.90;;;;;;4887608;29;20198;-77
2023/10/18 08:23:44;;;;;;;10.33;8.50;;;6.30;99.90;;;;;;4809833;29;20247;-79
2023/10/18 08:26:06;;;;;;;12.97;8.60;;;6.70;99.90;;;;;;4808871;29;20216;-79
2023/10/18 08:28:38;;;;;;;9.63;8.60;;;6.90;99.90;;;;;;4796822;29;20649;-77
2023/10/18 08:31:15;;;;;;;10.97;9.03;;;7.00;99.90;;;;;;4802561;29;20285;-76
2023/10/18 08:33:42;;;;;;;10.87;8.97;;;7.10;99.90;;;;;;4823883;29;20268;-78
2023/10/18 08:36:13;;;;;;;12.37;8.33;;;7.20;99.90;;;;;;4845495;29;20386;-79
2023/10/18 08:38:41;;;;;;;11.43;8.60;;;7.20;99.90;;;;;;4896483;29;20203;-77
2023/10/18 08:41:13;;;;;;;10.07;8.90;;;7.10;99.90;;;;;;4934943;29;20254;-78
2023/10/18 08:44:15;;;;;;;17.73;9.87;;;7.00;99.90;;;;;;4934749;29;20188;-76
2023/10/18 08:46:43;;;;;;;12.00;9.00;;;7.20;99.90;;;;;;4937744;29;20232;-79
2023/10/18 08:49:12;;;;;;;13.40;9.70;;;7.20;99.90;;;;;;4946394;29;21367;-79
2023/10/18 08:51:44;;;;;;;11.60;9.70;;;7.20;99.90;;;;;;4947059;29;20182;-77
2023/10/18 08:54:17;;;;;;;14.47;9.13;;;7.20;99.90;;;;;;4981130;28;20188;-77
2023/10/18 08:56:47;;;;;;;13.33;9.70;;;7.20;99.90;;;;;;5040958;28;20192;-78
2023/10/18 08:59:18;;;;;;;14.93;9.87;;;7.30;99.90;;;;;;5091077;28;20171;-76
2023/10/18 09:02:09;;;;;;;9.83;8.77;;;7.40;99.90;;;;;;5079693;28;20252;-76
2023/10/18 09:04:31;;;;;;;11.53;9.60;;;7.60;99.90;;;;;;5073615;28;20231;-78
2023/10/18 09:07:00;;;;;;;17.23;11.13;;;7.70;99.90;;;;;;5073303;28;20612;-77
2023/10/18 09:09:35;;;;;;;14.27;9.53;;;7.80;99.90;;;;;;5073727;28;20179;-79
2023/10/18 09:12:15;;;;;;;14.80;10.33;;;8.00;99.90;;;;;;5073725;28;20175;-76
2023/10/18 09:14:50;;;;;;;15.20;9.63;;;7.90;99.90;;;;;;5055499;28;20256;-77
2023/10/18 09:17:21;;;;;;;12.37;9.97;;;8.00;99.90;;;;;;5073725;28;20184;-77
2023/10/18 09:19:51;;;;;;;14.53;11.40;;;8.10;99.90;;;;;;5074032;28;20215;-77
2023/10/18 09:22:17;;;;;;;13.20;10.63;;;8.10;99.90;;;;;;5078742;28;20600;-77
2023/10/18 09:24:43;;;;;;;12.87;10.30;;;8.00;99.90;;;;;;5094145;28;20649;-76
2023/10/18 09:27:09;;;;;;;15.67;10.97;;;8.20;99.90;;;;;;5075470;28;20209;-78
2023/10/18 09:29:36;;;;;;;16.57;10.73;;;8.20;99.90;;;;;;5078555;28;20173;-77
2023/10/18 09:32:04;;;;;;;14.43;10.77;;;8.30;99.90;;;;;;5096872;28;20251;-78
2023/10/18 09:34:38;;;;;;;12.17;10.50;;;8.40;99.90;;;;;;5097022;28;20219;-77
2023/10/18 09:37:04;;;;;;;13.20;10.90;;;8.40;99.90;;;;;;5097996;28;20172;-76
2023/10/18 09:39:42;;;;;;;13.30;10.37;;;8.50;99.90;;;;;;5096860;28;20171;-76
2023/10/18 09:42:12;;;;;;;12.37;10.87;;;8.70;99.90;;;;;;5063450;28;20184;-77
2023/10/18 09:44:41;;;;;;;12.43;10.50;;;8.80;99.90;;;;;;5097298;28;20206;-77
2023/10/18 09:47:07;;;;;;;15.50;10.30;;;9.00;99.90;;;;;;5097196;28;20210;-78
2023/10/18 09:49:34;;;;;;;12.17;10.17;;;9.10;99.90;;;;;;5096617;28;20189;-77
2023/10/18 09:52:03;;;;;;;12.23;10.07;;;9.20;99.90;;;;;;5103991;28;20221;-78
2023/10/18 09:54:34;;;;;;;13.63;9.50;;;9.30;99.90;;;;;;5097300;28;20619;-77
2023/10/18 09:57:02;;;;;;;10.70;9.60;;;9.40;99.90;;;;;;5096461;28;20245;-78
2023/10/18 09:59:32;;;;;;;10.43;9.27;;;9.40;99.90;;;;;;5078715;28;20229;-78
2023/10/18 10:02:07;;;;;;;10.90;9.73;;;9.40;99.90;;;;;;5078891;28;20182;-77
2023/10/18 10:04:35;;;;;;;11.93;9.10;;;9.50;99.90;;;;;;5112534;28;20196;-77
2023/10/18 10:09:48;;;;;;;11.20;9.20;;;9.40;99.90;;;;;;5105919;28;20197;-77
2023/10/18 10:12:17;;;;;;;11.37;9.50;;;9.30;99.90;;;;;;5099995;28;20205;-77
2023/10/18 10:14:44;;;;;;;10.97;9.03;;;9.30;99.90;;;;;;5082563;28;20179;-77
2023/10/18 10:17:15;;;;;;;11.27;10.00;;;9.30;99.90;;;;;;5111225;28;20172;-76
2023/10/18 10:19:50;;;;;;;9.90;8.57;;;9.30;99.90;;;;;;5098460;28;20241;-75
2023/10/18 10:22:17;;;;;;;10.70;9.60;;;9.30;99.90;;;;;;5104168;28;20219;-79
2023/10/18 10:24:51;;;;;;;10.33;9.23;;;9.40;99.90;;;;;;5112194;28;20204;-76
2023/10/18 10:32:45;;;;;;;11.37;9.73;;;9.50;99.90;;;;;;5098369;28;20163;-76
2023/10/18 10:35:16;;;;;;;12.87;9.80;;;9.50;99.90;;;;;;5098929;28;20223;-77
2023/10/18 10:37:53;;;;;;;10.10;8.90;;;9.60;99.90;;;;;;5097031;28;20159;-77
2023/10/18 10:43:04;;;;;;;11.80;10.57;;;9.70;99.90;;;;;;5095882;28;20161;-77
2023/10/18 10:46:18;;;;;;;12.97;8.53;;;9.80;99.90;;;;;;5095609;28;20557;-78
2023/10/18 10:48:31;;;;;;;11.13;9.63;;;9.80;99.90;;;;;;5092614;28;20186;-79
2023/10/18 10:51:37;;;;;;;12.47;9.73;;;9.80;99.90;;;;;;5095621;28;20163;-78
2023/10/18 10:54:00;;;;;;;10.20;8.30;;;9.80;99.90;;;;;;5096028;28;20175;-76
2023/10/18 10:56:33;;;;;;;11.07;8.70;;;9.80;99.90;;;;;;5101784;28;20192;-78
2023/10/18 11:01:39;;;;;;;10.63;9.20;;;9.90;99.90;;;;;;5097799;28;20207;-76
2023/10/18 11:04:14;;;;;;;12.33;8.87;;;9.90;99.90;;;;;;5076746;28;20271;-78
2023/10/18 11:06:44;;;;;;;10.17;8.77;;;9.90;99.90;;;;;;5079128;28;20576;-75
2023/10/18 11:09:18;;;;;;;10.07;8.97;;;9.80;99.90;;;;;;5095896;28;20267;-76
2023/10/18 11:11:47;;;;;;;10.27;8.37;;;9.80;99.90;;;;;;5097697;28;20167;-76
2023/10/18 11:14:22;;;;;;;10.03;8.57;;;9.90;99.90;;;;;;5096599;28;20176;-75
2023/10/18 11:16:53;;;;;;;9.67;8.47;;;9.90;99.90;;;;;;5097037;28;20173;-76
2023/10/18 11:19:28;;;;;;;11.80;9.50;;;10.00;99.90;;;;;;5095761;28;20166;-76
2023/10/18 11:21:54;;;;;;;9.93;7.97;;;10.00;99.90;;;;;;5077247;28;20178;-76
2023/10/18 11:24:21;;;;;;;8.80;7.37;;;9.80;99.90;;;;;;5095396;28;20174;-77
2023/10/18 11:26:51;;;;;;;8.57;7.73;;;9.80;99.90;;;;;;5076606;28;20212;-77
2023/10/18 11:29:28;;;;;;;8.13;7.33;;;9.90;99.90;;;;;;5076864;28;20511;-79
2023/10/18 11:32:28;;;;;;;8.43;7.30;;;9.90;99.90;;;;;;5081002;28;20615;-78
2023/10/18 11:35:45;;;;;;;8.70;7.23;;;10.00;99.90;;;;;;5012179;28;20272;-75
2023/10/18 11:42:30;;;;;;;8.33;7.53;;;10.10;99.90;;;;;;4954361;29;20655;-77
2023/10/18 11:45:06;;;;;;;9.30;7.60;;;10.10;99.90;;;;;;4883644;29;20204;-76
2023/10/18 11:47:32;;;;;;;7.97;7.17;;;10.20;99.90;;;;;;4899501;29;20331;-76
2023/10/18 11:50:01;;;;;;;8.40;7.60;;;10.30;99.90;;;;;;4915831;29;20193;-77
2023/10/18 11:52:27;;;;;;;9.23;7.70;;;10.40;99.90;;;;;;4915172;29;20272;-78
2023/10/18 11:55:08;;;;;;;8.47;7.40;;;10.40;99.90;;;;;;4916921;29;20190;-77
2023/10/18 11:57:38;;;;;;;8.30;7.50;;;10.50;99.90;;;;;;4897607;29;20306;-75
2023/10/18 12:02:45;;;;;;;8.37;7.57;;;10.60;99.90;;;;;;4934078;29;20194;-76
2023/10/18 12:05:23;;;;;;;10.53;7.37;;;10.60;99.90;;;;;;4925837;29;20191;-76
2023/10/18 12:07:50;;;;;;;8.97;7.63;;;10.60;99.90;;;;;;4906661;29;20917;-76
2023/10/18 12:10:17;;;;;;;7.93;7.07;;;10.70;99.90;;;;;;4960426;29;20558;-76
2023/10/18 12:12:44;;;;;;;7.87;7.07;;;10.80;99.90;;;;;;4944388;29;20183;-76
2023/10/18 12:15:12;;;;;;;9.53;7.07;;;10.80;99.90;;;;;;4970754;28;20212;-75
2023/10/18 12:17:38;;;;;;;8.53;7.37;;;10.80;99.90;;;;;;4990519;28;20206;-75
2023/10/18 12:20:08;;;;;;;7.70;6.90;;;10.90;99.90;;;;;;5051886;28;20178;-76
2023/10/18 12:22:36;;;;;;;8.00;7.30;;;10.90;99.90;;;;;;5051568;28;20234;-75
2023/10/18 12:25:02;;;;;;;10.63;7.47;;;10.90;99.90;;;;;;5035438;28;20624;-77
2023/10/18 12:27:34;;;;;;;7.87;6.57;;;10.80;99.90;;;;;;5034635;28;20352;-76
2023/10/18 12:32:51;;;;;;;8.30;7.50;;;10.90;99.90;;;;;;5051435;28;20539;-76
2023/10/18 12:35:21;;;;;;;8.87;8.03;;;10.90;99.90;;;;;;5052044;28;20213;-76
2023/10/18 12:37:51;;;;;;;7.70;6.90;;;10.90;99.90;;;;;;5050238;28;20201;-76
2023/10/18 12:40:30;;;;;;;8.40;7.50;;;10.80;99.90;;;;;;5077946;28;20183;-77
2023/10/18 12:42:58;;;;;;;8.87;8.00;;;10.80;99.90;;;;;;5094561;28;20526;-78
2023/10/18 12:45:24;;;;;;;8.13;7.33;;;10.80;99.90;;;;;;5093647;28;20170;-76
2023/10/18 12:47:51;;;;;;;8.33;7.40;;;10.70;99.90;;;;;;5110109;28;20727;-76
2023/10/18 12:50:26;;;;;;;8.43;7.27;;;10.80;99.90;;;;;;5104158;28;20170;-76
2023/10/18 12:52:54;;;;;;;8.17;7.30;;;10.80;99.90;;;;;;5096897;28;20168;-76
2023/10/18 12:57:54;;;;;;;8.03;7.23;;;10.80;99.90;;;;;;5111345;28;20158;-77
2023/10/18 13:00:26;;;;;;;7.43;6.80;;;10.90;99.90;;;;;;5103910;28;20178;-76
2023/10/18 13:05:18;;;;;;;8.07;7.37;;;11.10;99.90;;;;;;5097902;28;20271;-75
2023/10/18 13:07:45;;;;;;;7.87;7.07;;;11.10;99.90;;;;;;5096974;28;20206;-75
2023/10/18 13:10:12;;;;;;;8.43;7.60;;;11.10;99.90;;;;;;5097537;28;20164;-76
2023/10/18 13:12:51;;;;;;;8.63;7.30;;;11.20;99.90;;;;;;5079433;28;20188;-74
2023/10/18 13:15:17;;;;;;;8.60;7.43;;;11.20;99.90;;;;;;5097996;28;20185;-75
2023/10/18 13:17:43;;;;;;;11.43;7.83;;;11.20;99.90;;;;;;5097563;28;20631;-76
2023/10/18 13:20:15;;;;;;;7.83;7.03;;;11.00;99.90;;;;;;5096772;28;20178;-77
2023/10/18 13:22:41;;;;;;;7.60;6.90;;;11.00;99.90;;;;;;5078504;28;20230;-76
2023/10/18 13:25:08;;;;;;;7.83;7.00;;;11.10;99.90;;;;;;5096796;28;20619;-76
2023/10/18 13:27:40;;;;;;;7.67;6.87;;;11.20;99.90;;;;;;5097066;28;20232;-77
2023/10/18 13:32:50;;;;;;;8.47;7.40;;;11.40;99.90;;;;;;5097188;28;20176;-75
2023/10/18 13:35:16;;;;;;;8.60;7.40;;;11.40;99.90;;;;;;5078768;28;20177;-77
2023/10/18 13:37:43;;;;;;;12.87;10.43;;;11.40;99.90;;;;;;5108387;28;20171;-77
2023/10/18 13:40:18;;;;;;;11.20;9.83;;;11.40;99.90;;;;;;5100518;28;20178;-77
2023/10/18 13:42:50;;;;;;;9.77;7.33;;;11.40;99.90;;;;;;5097381;28;20172;-76
2023/10/18 13:45:16;;;;;;;9.10;7.60;;;11.40;99.90;;;;;;5098707;28;20529;-75
2023/10/18 13:47:42;;;;;;;8.00;7.30;;;11.40;99.90;;;;;;5113643;28;20218;-76
2023/10/18 13:50:11;;;;;;;7.50;6.80;;;11.40;99.90;;;;;;5097202;28;20260;-75
2023/10/18 13:52:42;;;;;;;7.73;6.93;;;11.40;99.90;;;;;;5103393;28;20175;-76
2023/10/18 13:55:08;;;;;;;7.60;6.90;;;11.50;99.90;;;;;;5115339;28;20186;-76
2023/10/18 13:57:35;;;;;;;7.43;6.73;;;11.50;99.90;;;;;;5098028;28;20170;-77
2023/10/18 14:00:06;;;;;;;8.47;7.10;;;11.50;99.90;;;;;;5097506;28;20171;-75
2023/10/18 14:02:36;;;;;;;7.60;6.87;;;11.50;99.90;;;;;;5096243;28;20243;-76
2023/10/18 14:05:07;;;;;;;7.43;6.73;;;11.40;99.90;;;;;;5097973;28;20180;-76
2023/10/18 14:07:35;;;;;;;8.33;7.50;;;11.40;99.90;;;;;;5100029;28;20233;-77
2023/10/18 14:10:27;;;;;;;7.47;6.77;;;11.40;99.90;;;;;;5105067;28;20161;-77
2023/10/18 14:12:53;;;;;;;8.73;7.93;;;11.40;99.90;;;;;;5103068;28;20197;-77
2023/10/18 14:15:19;;;;;;;8.77;7.87;;;11.40;99.90;;;;;;5099676;28;20172;-76
2023/10/18 14:17:46;;;;;;;8.77;7.97;;;11.40;99.90;;;;;;5114463;28;20507;-77
2023/10/18 14:20:13;;;;;;;9.43;8.30;;;11.50;99.90;;;;;;5077779;28;20184;-78
2023/10/18 14:22:40;;;;;;;10.17;8.67;;;11.50;99.90;;;;;;5078097;28;20247;-76
2023/10/18 14:25:13;;;;;;;9.20;8.30;;;11.40;99.90;;;;;;5096619;28;20269;-78
2023/10/18 14:27:40;;;;;;;9.43;7.83;;;11.50;99.90;;;;;;5097310;28;20202;-77